createdAt,value
2022-11-25T00:01:46.998Z,24.00
2022-11-25T00:03:50.747Z,22.00
2022-11-25T00:05:53.502Z,23.00
2022-11-25T00:07:56.436Z,21.30
2022-11-25T00:09:59.266Z,25.20
2022-11-25T00:12:02.124Z,26.50
2022-11-25T00:14:05.524Z,23.20
2022-11-25T00:16:11.390Z,22.80
2022-11-25T00:18:14.244Z,21.30
2022-11-25T00:20:17.156Z,21.20
2022-11-25T00:22:19.922Z,23.50
2022-11-25T00:24:22.895Z,22.70
2022-11-25T00:26:27.519Z,24.60
2022-11-25T00:28:30.296Z,24.10
2022-11-25T00:30:33.145Z,25.10
2022-11-25T00:32:36.017Z,24.60
2022-11-25T00:34:38.752Z,25.20
2022-11-25T00:36:42.006Z,22.90
2022-11-25T00:38:45.955Z,22.90
2022-11-25T00:41:12.907Z,21.10
2022-11-25T00:43:34.360Z,21.00
2022-11-25T00:45:37.210Z,21.60
2022-11-25T00:47:40.027Z,26.40
2022-11-25T00:49:45.659Z,24.10
2022-11-25T00:51:48.510Z,24.90
2022-11-25T00:53:55.950Z,23.30
2022-11-25T00:56:14.128Z,22.00
2022-11-25T00:58:16.918Z,22.60
2022-11-25T01:00:20.023Z,22.30
2022-11-25T01:02:23.279Z,22.20
2022-11-25T01:04:26.173Z,22.00
2022-11-25T01:06:28.954Z,22.20
2022-11-25T01:08:33.072Z,23.80
2022-11-25T01:10:35.845Z,23.40
2022-11-25T01:12:38.664Z,24.20
2022-11-25T01:14:41.450Z,23.70
2022-11-25T01:16:44.319Z,24.50
2022-11-25T01:18:48.387Z,27.30
2022-11-25T01:20:51.248Z,25.40
2022-11-25T01:22:54.059Z,24.90
2022-11-25T01:24:56.814Z,21.70
2022-11-25T01:26:59.575Z,24.80
2022-11-25T01:29:08.099Z,20.40
2022-11-25T01:31:14.797Z,22.30
2022-11-25T01:33:17.655Z,24.10
2022-11-25T01:35:20.564Z,22.90
2022-11-25T01:37:23.372Z,23.10
2022-11-25T01:39:32.166Z,22.40
2022-11-25T01:41:36.098Z,23.00
2022-11-25T01:43:38.998Z,21.60
2022-11-25T01:45:41.807Z,20.70
2022-11-25T01:47:44.836Z,19.70
2022-11-25T01:50:05.042Z,19.90
2022-11-25T01:52:08.025Z,20.70
2022-11-25T01:54:14.376Z,21.30
2022-11-25T01:56:17.609Z,20.90
2022-11-25T01:58:29.677Z,19.60
2022-11-25T02:00:32.696Z,21.20
2022-11-25T02:02:35.927Z,21.80
2022-11-25T02:04:40.409Z,22.20
2022-11-25T02:06:52.779Z,21.80
2022-11-25T02:09:01.682Z,20.20
2022-11-25T02:11:07.505Z,19.50
2022-11-25T02:13:11.245Z,20.90
2022-11-25T02:15:15.635Z,22.50
2022-11-25T02:17:18.642Z,18.90
2022-11-25T02:19:32.328Z,18.10
2022-11-25T02:21:42.855Z,19.10
2022-11-25T02:24:09.722Z,21.20
2022-11-25T02:26:13.064Z,21.20
2022-11-25T02:28:27.868Z,21.80
2022-11-25T02:30:30.720Z,21.60
2022-11-25T02:32:33.594Z,20.00
2022-11-25T02:34:36.586Z,19.40
2022-11-25T02:36:39.546Z,20.60
2022-11-25T02:38:51.046Z,19.60
2022-11-25T02:41:05.957Z,20.00
2022-11-25T02:43:08.819Z,16.80
2022-11-25T02:45:16.957Z,19.00
2022-11-25T02:47:19.724Z,19.50
2022-11-25T02:49:22.487Z,20.60
2022-11-25T02:51:29.072Z,19.60
2022-11-25T02:56:37.069Z,19.60
2022-11-25T02:58:38.963Z,17.60
2022-11-25T03:00:41.367Z,19.90
2022-11-25T03:02:43.125Z,18.70
2022-11-25T03:04:44.670Z,20.60
2022-11-25T03:06:46.315Z,20.90
2022-11-25T03:08:48.682Z,20.20
2022-11-25T03:10:51.120Z,20.00
2022-11-25T03:12:53.320Z,22.70
2022-11-25T03:14:55.329Z,19.80
2022-11-25T03:16:56.995Z,20.70
2022-11-25T03:18:58.852Z,19.40
2022-11-25T03:22:44.830Z,17.10
2022-11-25T03:26:21.626Z,19.00
2022-11-25T03:29:59.062Z,17.90
2022-11-25T03:32:05.450Z,17.40
2022-11-25T03:34:11.094Z,18.30
2022-11-25T03:36:13.933Z,16.50
2022-11-25T03:38:16.755Z,16.80
2022-11-25T03:40:19.651Z,17.30
2022-11-25T03:42:22.474Z,16.20
2022-11-25T03:44:25.288Z,15.90
2022-11-25T03:46:28.283Z,18.00
2022-11-25T03:48:31.109Z,19.60
2022-11-25T03:50:33.926Z,16.70
2022-11-25T03:52:37.428Z,19.40
2022-11-25T03:54:40.383Z,16.00
2022-11-25T03:56:43.242Z,15.50
2022-11-25T03:58:46.090Z,16.70
2022-11-25T04:00:48.868Z,16.40
2022-11-25T04:02:51.710Z,15.60
2022-11-25T04:04:54.540Z,16.70
2022-11-25T04:06:57.356Z,17.10
2022-11-25T04:09:00.185Z,17.60
2022-11-25T04:11:03.068Z,15.70
2022-11-25T04:13:05.942Z,17.40
2022-11-25T04:15:09.632Z,15.90
2022-11-25T04:17:12.490Z,15.20
2022-11-25T04:19:15.482Z,14.60
2022-11-25T04:21:18.472Z,17.10
2022-11-25T04:23:21.509Z,17.70
2022-11-25T04:25:24.306Z,19.50
2022-11-25T04:27:27.117Z,19.50
2022-11-25T04:29:29.950Z,16.40
2022-11-25T04:31:33.128Z,18.40
2022-11-25T04:33:35.838Z,21.40
2022-11-25T04:35:38.614Z,19.70
2022-11-25T04:37:41.569Z,19.70
2022-11-25T04:39:44.318Z,18.60
2022-11-25T04:41:47.135Z,18.10
2022-11-25T04:43:49.933Z,19.90
2022-11-25T04:48:15.915Z,18.20
2022-11-25T04:50:22.349Z,17.50
2022-11-25T04:52:25.507Z,17.10
2022-11-25T04:54:28.278Z,17.10
2022-11-25T04:56:31.165Z,17.00
2022-11-25T04:58:52.628Z,18.40
2022-11-25T05:00:55.453Z,18.50
2022-11-25T05:02:58.319Z,17.10
2022-11-25T05:05:01.269Z,16.10
2022-11-25T05:07:04.244Z,14.90
2022-11-25T05:09:07.090Z,15.40
2022-11-25T05:11:09.864Z,14.20
2022-11-25T05:13:12.651Z,13.40
2022-11-25T05:15:15.662Z,14.90
2022-11-25T05:17:24.372Z,17.10
2022-11-25T05:19:27.202Z,18.50
2022-11-25T05:21:30.025Z,16.80
2022-11-25T05:23:32.820Z,15.10
2022-11-25T05:25:35.644Z,16.50
2022-11-25T05:27:38.483Z,17.30
2022-11-25T05:29:41.368Z,15.80
2022-11-25T05:31:44.435Z,17.20
2022-11-25T05:33:47.791Z,16.00
2022-11-25T05:36:02.210Z,15.90
2022-11-25T05:38:05.064Z,15.80
2022-11-25T05:40:08.365Z,17.20
2022-11-25T05:42:11.214Z,15.20
2022-11-25T05:44:16.208Z,15.10
2022-11-25T05:46:22.905Z,16.40
2022-11-25T05:48:25.795Z,18.70
2022-11-25T05:50:28.702Z,18.00
2022-11-25T05:52:32.244Z,16.90
2022-11-25T05:54:35.342Z,16.20
2022-11-25T05:56:38.942Z,16.10
2022-11-25T05:58:41.828Z,14.60
2022-11-25T06:00:44.687Z,14.30
2022-11-25T06:02:51.253Z,16.80
2022-11-25T06:04:54.565Z,15.50
2022-11-25T06:06:57.318Z,17.50
2022-11-25T06:09:00.392Z,15.60
2022-11-25T06:11:13.312Z,15.40
2022-11-25T06:13:16.125Z,15.90
2022-11-25T06:15:19.032Z,13.90
2022-11-25T06:17:21.839Z,14.90
2022-11-25T06:19:24.904Z,14.30
2022-11-25T06:21:28.029Z,14.70
2022-11-25T06:23:31.665Z,14.70
2022-11-25T06:25:34.547Z,13.40
2022-11-25T06:28:04.402Z,15.40
2022-11-25T06:30:00.380Z,14.40
2022-11-25T06:32:03.850Z,15.70
2022-11-25T06:34:09.309Z,15.40
2022-11-25T06:36:17.168Z,15.50
2022-11-25T06:38:20.019Z,16.80
2022-11-25T06:40:22.874Z,15.70
2022-11-25T06:42:25.766Z,15.40
2022-11-25T06:44:28.636Z,15.80
2022-11-25T06:46:31.525Z,15.60
2022-11-25T06:48:34.697Z,17.00
2022-11-25T06:50:37.663Z,16.20
2022-11-25T06:52:40.698Z,16.00
2022-11-25T06:54:43.561Z,17.20
2022-11-25T06:56:51.619Z,15.60
2022-11-25T06:58:55.402Z,16.10
2022-11-25T07:01:03.395Z,19.10
2022-11-25T07:03:06.256Z,20.60
2022-11-25T07:05:09.304Z,18.50
2022-11-25T07:07:12.225Z,17.00
2022-11-25T07:09:15.322Z,17.00
2022-11-25T07:11:21.465Z,14.90
2022-11-25T07:13:24.326Z,15.20
2022-11-25T07:15:27.067Z,14.80
2022-11-25T07:17:29.842Z,14.10
2022-11-25T07:19:35.579Z,13.70
2022-11-25T07:21:38.865Z,15.00
2022-11-25T07:23:43.122Z,18.00
2022-11-25T07:25:45.850Z,14.10
2022-11-25T07:27:48.584Z,14.30
2022-11-25T07:30:03.567Z,14.00
2022-11-25T07:32:14.267Z,12.70
2022-11-25T07:34:23.314Z,10.70
2022-11-25T07:36:27.589Z,30.10
2022-11-25T07:38:30.440Z,17.80
2022-11-25T07:40:33.286Z,16.50
2022-11-25T07:42:36.219Z,16.70
2022-11-25T07:44:39.061Z,15.30
2022-11-25T07:46:44.457Z,15.90
2022-11-25T07:48:47.843Z,13.00
2022-11-25T07:50:50.626Z,11.80
2022-11-25T07:52:53.971Z,11.60
2022-11-25T07:54:56.711Z,13.20
2022-11-25T07:56:59.560Z,8.50
2022-11-25T07:59:03.144Z,11.60
2022-11-25T08:01:07.703Z,15.00
2022-11-25T08:03:10.496Z,12.40
2022-11-25T08:05:13.404Z,13.30
2022-11-25T08:07:16.267Z,11.10
2022-11-25T08:09:21.780Z,16.60
2022-11-25T08:11:27.503Z,17.50
2022-11-25T08:13:30.271Z,16.30
2022-11-25T08:15:33.461Z,14.00
2022-11-25T08:17:36.248Z,14.00
2022-11-25T08:19:40.324Z,13.10
2022-11-25T08:21:43.328Z,11.70
2022-11-25T08:23:48.901Z,12.40
2022-11-25T08:25:52.138Z,15.40
2022-11-25T08:27:55.003Z,12.90
2022-11-25T08:29:57.900Z,14.10
2022-11-25T08:32:00.782Z,13.80
2022-11-25T08:34:05.423Z,14.60
2022-11-25T08:36:08.987Z,14.50
2022-11-25T08:38:12.809Z,15.00
2022-11-25T08:40:15.905Z,15.30
2022-11-25T08:42:18.664Z,19.40
2022-11-25T08:44:21.479Z,15.20
2022-11-25T08:46:27.554Z,17.50
2022-11-25T08:48:30.475Z,16.80
2022-11-25T08:50:33.472Z,14.40
2022-11-25T08:52:36.511Z,17.10
2022-11-25T08:54:39.320Z,17.60
2022-11-25T08:56:43.591Z,17.10
2022-11-25T08:58:46.613Z,16.40
2022-11-25T09:00:49.447Z,16.00
2022-11-25T09:02:52.315Z,15.60
2022-11-25T09:04:55.073Z,15.10
2022-11-25T09:06:58.041Z,15.00
2022-11-25T09:09:01.961Z,14.00
2022-11-25T09:11:05.417Z,12.10
2022-11-25T09:13:10.487Z,10.50
2022-11-25T09:15:13.431Z,11.30
2022-11-25T09:17:16.616Z,10.20
2022-11-25T09:19:20.248Z,9.70
2022-11-25T09:21:25.060Z,11.10
2022-11-25T09:23:28.174Z,12.30
2022-11-25T09:25:31.009Z,9.00
2022-11-25T09:27:33.763Z,11.40
2022-11-25T09:29:37.144Z,10.20
2022-11-25T09:31:40.560Z,12.20
2022-11-25T09:33:43.731Z,10.50
2022-11-25T09:35:47.363Z,8.90
2022-11-25T09:37:50.698Z,12.40
2022-11-25T09:39:56.182Z,10.40
2022-11-25T09:42:58.998Z,11.80
2022-11-25T09:45:43.495Z,11.80
2022-11-25T09:48:07.841Z,10.50
2022-11-25T09:50:26.269Z,11.40
2022-11-25T09:52:47.925Z,11.90
2022-11-25T09:55:05.712Z,12.40
2022-11-25T09:57:27.344Z,12.40
2022-11-25T09:59:44.253Z,8.70
2022-11-25T10:01:56.083Z,10.00
2022-11-25T10:04:07.116Z,9.20
2022-11-25T10:06:19.267Z,8.30
2022-11-25T10:08:30.173Z,6.80
2022-11-25T10:10:41.936Z,8.20
2022-11-25T10:12:46.955Z,7.10
2022-11-25T10:14:54.696Z,7.40
2022-11-25T10:17:29.298Z,7.70
2022-11-25T10:19:40.933Z,7.90
2022-11-25T10:21:46.395Z,7.70
2022-11-25T10:26:44.170Z,6.50
2022-11-25T10:28:55.920Z,6.60
2022-11-25T10:31:06.875Z,5.40
2022-11-25T10:33:21.200Z,9.00
2022-11-25T10:35:32.347Z,6.70
2022-11-25T10:37:42.371Z,7.70
2022-11-25T10:39:45.160Z,5.80
2022-11-25T10:42:03.607Z,6.30
2022-11-25T10:44:19.854Z,7.60
2022-11-25T10:47:13.420Z,8.40
2022-11-25T10:49:24.228Z,7.10
2022-11-25T10:51:51.528Z,7.90
2022-11-25T10:54:15.309Z,9.40
2022-11-25T10:56:19.236Z,8.70
2022-11-25T10:58:39.760Z,6.20
2022-11-25T11:00:42.630Z,6.60
2022-11-25T11:02:48.671Z,7.20
2022-11-25T11:05:12.218Z,8.20
2022-11-25T11:07:15.139Z,8.70
2022-11-25T11:09:38.643Z,7.80
2022-11-25T11:11:49.066Z,9.00
2022-11-25T11:13:59.735Z,9.30
2022-11-25T11:16:04.173Z,8.50
2022-11-25T11:18:25.444Z,8.00
2022-11-25T11:20:31.824Z,8.90
2022-11-25T11:22:36.354Z,8.60
2022-11-25T11:24:39.933Z,6.80
2022-11-25T11:26:43.020Z,8.60
2022-11-25T11:28:45.802Z,8.40
2022-11-25T11:31:02.477Z,9.40
2022-11-25T11:33:26.977Z,9.80
2022-11-25T11:38:30.968Z,10.30
2022-11-25T11:40:39.097Z,8.20
2022-11-25T11:42:55.741Z,9.30
2022-11-25T11:45:28.922Z,7.20
2022-11-25T11:47:49.116Z,8.20
2022-11-25T11:50:02.579Z,9.80
2022-11-25T11:52:17.147Z,9.20
2022-11-25T11:54:35.377Z,9.60
2022-11-25T11:59:10.508Z,9.00
2022-11-25T12:01:21.516Z,10.10
2022-11-25T12:03:27.586Z,9.60
2022-11-25T12:05:34.858Z,10.10
2022-11-25T12:07:53.226Z,8.90
2022-11-25T12:10:03.415Z,10.60
2022-11-25T12:12:13.612Z,10.50
2022-11-25T12:14:34.679Z,8.60
2022-11-25T12:16:47.278Z,8.30
2022-11-25T12:19:09.508Z,9.20
2022-11-25T12:21:30.923Z,9.70
2022-11-25T12:24:04.765Z,7.90
2022-11-25T12:26:29.228Z,9.20
2022-11-25T12:28:41.410Z,9.00
2022-11-25T12:31:25.981Z,8.80
2022-11-25T12:33:43.459Z,9.70
2022-11-25T12:35:59.176Z,10.50
2022-11-25T12:38:04.953Z,9.60
2022-11-25T12:40:15.142Z,9.20
2022-11-25T12:42:25.585Z,9.60
2022-11-25T12:44:43.200Z,9.10
2022-11-25T12:46:48.977Z,9.60
2022-11-25T12:48:54.203Z,8.10
2022-11-25T12:51:02.902Z,9.40
2022-11-25T12:53:14.109Z,9.10
2022-11-25T12:55:27.578Z,9.60
2022-11-25T12:58:01.382Z,10.20
2022-11-25T13:00:42.400Z,8.90
2022-11-25T13:03:13.945Z,8.30
2022-11-25T13:05:54.892Z,8.70
2022-11-25T13:08:08.585Z,9.40
2022-11-25T13:10:29.835Z,10.30
2022-11-25T13:12:48.203Z,10.20
2022-11-25T13:17:25.272Z,11.20
2022-11-25T13:19:28.423Z,11.00
2022-11-25T13:21:31.350Z,10.50
2022-11-25T13:24:00.413Z,10.60
2022-11-25T13:26:32.726Z,12.20
2022-11-25T13:28:38.124Z,11.60
2022-11-25T13:30:42.540Z,12.00
2022-11-25T13:32:46.162Z,12.60
2022-11-25T13:34:49.022Z,13.00
2022-11-25T13:36:54.126Z,13.90
2022-11-25T13:38:56.911Z,11.00
2022-11-25T13:41:21.368Z,13.70
2022-11-25T13:43:24.315Z,11.30
2022-11-25T13:45:38.196Z,12.40
2022-11-25T13:47:46.091Z,11.90
2022-11-25T13:50:00.382Z,13.50
2022-11-25T13:52:26.538Z,12.70
2022-11-25T13:54:39.095Z,13.50
2022-11-25T13:56:42.297Z,12.60
2022-11-25T13:59:09.994Z,13.10
2022-11-25T14:01:29.767Z,14.00
2022-11-25T14:03:33.244Z,14.50
2022-11-25T14:06:05.534Z,16.80
2022-11-25T14:08:26.709Z,18.40
2022-11-25T14:10:38.698Z,18.00
2022-11-25T14:13:19.161Z,16.80
2022-11-25T14:15:34.478Z,15.50
2022-11-25T14:17:49.561Z,15.80
2022-11-25T14:20:06.856Z,17.80
2022-11-25T14:22:31.162Z,13.10
2022-11-25T14:24:49.758Z,13.20
2022-11-25T14:26:54.174Z,13.80
2022-11-25T14:29:06.050Z,14.10
2022-11-25T14:31:16.422Z,14.10
2022-11-25T14:33:25.906Z,12.50
2022-11-25T14:35:41.655Z,14.30
2022-11-25T14:37:59.892Z,13.60
2022-11-25T14:40:18.130Z,13.90
2022-11-25T14:42:24.217Z,12.70
2022-11-25T14:44:35.928Z,12.70
2022-11-25T14:46:55.273Z,13.30
2022-11-25T14:49:01.628Z,12.10
2022-11-25T14:51:10.067Z,15.90
2022-11-25T14:53:14.646Z,15.20
2022-11-25T14:55:30.569Z,16.30
2022-11-25T14:57:36.882Z,15.60
2022-11-25T14:59:45.168Z,14.70
2022-11-25T15:01:55.517Z,13.30
2022-11-25T15:04:13.401Z,12.40
2022-11-25T15:06:19.993Z,15.30
2022-11-25T15:08:24.579Z,13.00
2022-11-25T15:10:57.385Z,14.30
2022-11-25T15:13:07.855Z,15.30
2022-11-25T15:15:15.476Z,16.90
2022-11-25T15:17:37.559Z,14.60
2022-11-25T15:19:40.697Z,16.80
2022-11-25T15:22:20.864Z,18.90
2022-11-25T15:24:23.506Z,19.20
2022-11-25T15:26:29.283Z,18.70
2022-11-25T15:28:37.475Z,15.70
2022-11-25T15:30:40.475Z,18.30
2022-11-25T15:32:43.563Z,17.50
2022-11-25T15:34:47.674Z,16.60
2022-11-25T15:36:54.409Z,16.80
2022-11-25T15:39:19.673Z,18.70
2022-11-25T15:41:35.956Z,17.30
2022-11-25T15:43:42.178Z,18.80
2022-11-25T15:45:47.315Z,23.70
2022-11-25T15:47:50.341Z,22.40
2022-11-25T15:50:00.693Z,19.90
2022-11-25T15:52:09.046Z,20.30
2022-11-25T15:54:28.614Z,18.90
2022-11-25T15:56:34.006Z,19.80
2022-11-25T15:58:36.938Z,19.40
2022-11-25T16:00:41.890Z,20.90
2022-11-25T16:02:44.796Z,26.70
2022-11-25T16:04:48.509Z,25.10
2022-11-25T16:06:56.753Z,23.10
2022-11-25T16:09:02.009Z,23.70
2022-11-25T16:11:10.870Z,19.50
2022-11-25T16:13:29.064Z,20.00
2022-11-25T16:15:45.589Z,19.20
2022-11-25T16:17:48.607Z,17.80
2022-11-25T16:19:51.525Z,18.90
2022-11-25T16:22:02.156Z,16.90
2022-11-25T16:24:05.383Z,18.20
2022-11-25T16:26:11.068Z,18.50
2022-11-25T16:28:22.018Z,17.20
2022-11-25T16:30:26.303Z,19.50
2022-11-25T16:32:31.557Z,17.30
2022-11-25T16:34:34.865Z,16.20
2022-11-25T16:36:37.915Z,16.40
2022-11-25T16:38:40.771Z,17.60
2022-11-25T16:40:44.115Z,18.80
2022-11-25T16:42:50.787Z,25.30
2022-11-25T16:44:53.743Z,24.80
2022-11-25T16:46:57.776Z,27.10
2022-11-25T16:49:08.400Z,23.70
2022-11-25T16:51:19.206Z,25.10
2022-11-25T16:53:22.029Z,21.80
2022-11-25T16:55:25.225Z,16.40
2022-11-25T16:57:28.533Z,19.30
2022-11-25T16:59:41.427Z,20.40
2022-11-25T17:03:47.499Z,23.60
2022-11-25T17:05:51.040Z,24.70
2022-11-25T17:07:54.005Z,19.70
2022-11-25T17:09:56.861Z,17.80
2022-11-25T17:11:59.671Z,14.50
2022-11-25T17:14:06.480Z,13.90
2022-11-25T17:16:15.508Z,16.50
2022-11-25T17:18:19.406Z,17.50
2022-11-25T17:20:25.258Z,17.50
2022-11-25T17:22:33.378Z,18.50
2022-11-25T17:24:39.330Z,18.60
2022-11-25T17:26:44.269Z,18.70
2022-11-25T17:28:59.118Z,15.20
2022-11-25T17:31:01.908Z,18.10
2022-11-25T17:33:10.532Z,18.20
2022-11-25T17:35:19.083Z,17.80
2022-11-25T17:37:24.374Z,15.70
2022-11-25T17:39:27.188Z,16.70
2022-11-25T17:41:30.999Z,17.10
2022-11-25T17:43:38.170Z,20.30
2022-11-25T17:45:41.789Z,17.80
2022-11-25T17:47:45.093Z,18.20
2022-11-25T17:49:49.607Z,18.90
2022-11-25T17:51:52.504Z,18.70
2022-11-25T17:53:55.295Z,19.20
2022-11-25T17:55:58.118Z,19.40
2022-11-25T17:58:01.626Z,20.30
2022-11-25T18:00:07.733Z,18.30
2022-11-25T18:02:19.259Z,20.20
2022-11-25T18:04:25.066Z,20.50
2022-11-25T18:06:27.927Z,20.80
2022-11-25T18:08:30.824Z,22.10
2022-11-25T18:10:34.398Z,19.20
2022-11-25T18:12:38.385Z,19.10
2022-11-25T18:14:43.048Z,17.30
2022-11-25T18:16:46.103Z,18.10
2022-11-25T18:18:49.117Z,19.90
2022-11-25T18:20:53.183Z,17.60
2022-11-25T18:22:56.070Z,19.30
2022-11-25T18:24:58.887Z,21.20
2022-11-25T18:27:01.811Z,19.80
2022-11-25T18:29:04.717Z,22.40
2022-11-25T18:31:07.795Z,20.30
2022-11-25T18:33:14.475Z,20.20
2022-11-25T18:35:23.884Z,18.10
2022-11-25T18:37:26.772Z,18.50
2022-11-25T18:39:29.569Z,20.80
2022-11-25T18:41:32.488Z,20.20
2022-11-25T18:43:37.741Z,22.30
2022-11-25T18:45:40.972Z,22.30
2022-11-25T18:47:45.287Z,25.40
2022-11-25T18:49:53.855Z,23.10
2022-11-25T18:51:58.666Z,22.60
2022-11-25T18:54:01.534Z,21.20
2022-11-25T18:56:04.556Z,24.80
2022-11-25T18:58:23.820Z,22.10
2022-11-25T19:00:32.832Z,22.70
2022-11-25T19:02:36.411Z,21.60
2022-11-25T19:04:39.721Z,22.70
2022-11-25T19:06:43.588Z,24.10
2022-11-25T19:08:46.393Z,23.30
2022-11-25T19:10:49.949Z,22.80
2022-11-25T19:12:57.778Z,22.80
2022-11-25T19:15:00.932Z,22.10
2022-11-25T19:17:07.739Z,22.00
2022-11-25T19:19:16.714Z,20.50
2022-11-25T19:21:21.656Z,17.30
2022-11-25T19:23:28.012Z,14.50
2022-11-25T19:25:30.864Z,15.10
2022-11-25T19:27:37.692Z,14.90
2022-11-25T19:29:42.357Z,17.60
2022-11-25T19:31:45.708Z,18.80
2022-11-25T19:33:51.090Z,20.80
2022-11-25T19:35:53.905Z,22.10
2022-11-25T19:37:56.708Z,20.40
2022-11-25T19:39:59.673Z,21.80
2022-11-25T19:42:02.497Z,26.30
2022-11-25T19:44:05.249Z,23.70
2022-11-25T19:46:29.567Z,24.90
2022-11-25T19:48:39.406Z,20.90
2022-11-25T19:50:43.851Z,20.30
2022-11-25T19:52:46.863Z,18.10
2022-11-25T19:54:49.786Z,18.90
2022-11-25T19:56:52.532Z,18.40
2022-11-25T19:58:56.425Z,20.60
2022-11-25T20:01:04.012Z,19.00
2022-11-25T20:03:19.124Z,17.40
2022-11-25T20:05:33.383Z,18.70
2022-11-25T20:07:36.726Z,18.80
2022-11-25T20:09:39.990Z,18.40
2022-11-25T20:11:43.410Z,18.00
2022-11-25T20:13:47.265Z,18.40
2022-11-25T20:15:50.922Z,17.30
2022-11-25T20:17:58.156Z,15.90
2022-11-25T20:20:14.044Z,17.50
2022-11-25T20:22:21.408Z,16.90
2022-11-25T20:24:24.288Z,15.50
2022-11-25T20:26:30.998Z,19.10
2022-11-25T20:28:34.013Z,17.80
2022-11-25T20:30:36.829Z,17.10
2022-11-25T20:32:39.637Z,18.10
2022-11-25T20:34:43.905Z,18.10
2022-11-25T20:36:46.879Z,17.10
2022-11-25T20:38:54.765Z,15.90
2022-11-25T20:40:59.807Z,19.50
2022-11-25T20:43:03.077Z,17.50
2022-11-25T20:45:13.248Z,17.50
2022-11-25T20:47:18.783Z,16.80
2022-11-25T20:49:27.288Z,17.90
2022-11-25T20:51:30.420Z,19.20
2022-11-25T20:53:33.721Z,17.60
2022-11-25T20:55:36.522Z,15.70
2022-11-25T20:57:39.294Z,16.80
2022-11-25T20:59:44.266Z,17.40
2022-11-25T21:01:47.960Z,16.10
2022-11-25T21:03:50.952Z,18.00
2022-11-25T21:05:55.564Z,15.60
2022-11-25T21:07:58.522Z,18.30
2022-11-25T21:10:01.590Z,17.20
2022-11-25T21:12:04.871Z,16.50
2022-11-25T21:14:14.900Z,18.80
2022-11-25T21:16:18.143Z,20.40
2022-11-25T21:18:21.859Z,18.20
2022-11-25T21:20:24.694Z,19.30
2022-11-25T21:22:27.528Z,22.30
2022-11-25T21:24:41.613Z,24.20
2022-11-25T21:26:45.211Z,25.00
2022-11-25T21:28:50.056Z,21.70
2022-11-25T21:30:52.935Z,18.10
2022-11-25T21:32:57.546Z,16.40
2022-11-25T21:35:00.430Z,15.40
2022-11-25T21:37:03.418Z,15.60
2022-11-25T21:39:19.063Z,19.40
2022-11-25T21:41:21.876Z,31.90
2022-11-25T21:43:31.830Z,27.10
2022-11-25T21:45:34.749Z,23.80
2022-11-25T21:47:37.551Z,21.90
2022-11-25T21:49:40.617Z,18.30
2022-11-25T21:51:43.394Z,14.90
2022-11-25T21:53:46.216Z,14.50
2022-11-25T21:55:49.682Z,15.20
2022-11-25T21:57:52.547Z,16.40
2022-11-25T21:59:56.002Z,16.50
2022-11-25T22:01:58.837Z,13.50
2022-11-25T22:04:01.703Z,13.90
2022-11-25T22:06:21.758Z,15.10
2022-11-25T22:08:24.685Z,16.20
2022-11-25T22:10:27.651Z,15.00
2022-11-25T22:12:30.940Z,15.50
2022-11-25T22:14:38.320Z,17.90
2022-11-25T22:16:41.546Z,16.20
2022-11-25T22:18:44.819Z,15.30
2022-11-25T22:20:53.099Z,16.40
2022-11-25T22:22:56.893Z,16.30
2022-11-25T22:24:59.622Z,16.10
2022-11-25T22:27:03.557Z,16.20
2022-11-25T22:29:14.014Z,15.90
2022-11-25T22:31:19.195Z,18.60
2022-11-25T22:33:30.635Z,17.80
2022-11-25T22:35:33.407Z,16.40
2022-11-25T22:37:36.255Z,15.30
2022-11-25T22:39:38.991Z,15.70
2022-11-25T22:41:45.000Z,15.70
2022-11-25T22:43:51.851Z,15.00
2022-11-25T22:45:56.259Z,18.20
2022-11-25T22:48:04.518Z,16.80
2022-11-25T22:50:17.880Z,15.30
2022-11-25T22:52:34.296Z,15.50
2022-11-25T22:54:37.233Z,15.70
2022-11-25T22:56:40.417Z,14.70
2022-11-25T22:58:43.229Z,15.50
2022-11-25T23:00:47.610Z,15.70
2022-11-25T23:02:54.850Z,17.30
2022-11-25T23:04:57.691Z,17.70
2022-11-25T23:07:00.523Z,16.20
2022-11-25T23:09:03.544Z,15.90
2022-11-25T23:11:06.922Z,18.50
2022-11-25T23:13:10.192Z,16.80
2022-11-25T23:15:15.309Z,19.60
2022-11-25T23:17:24.590Z,15.50
2022-11-25T23:19:27.402Z,17.90
2022-11-25T23:21:30.881Z,15.10
2022-11-25T23:23:33.670Z,15.20
2022-11-25T23:25:36.514Z,16.70
2022-11-25T23:27:39.417Z,15.30
2022-11-25T23:29:42.386Z,14.40
2022-11-25T23:31:45.248Z,13.70
2022-11-25T23:33:51.701Z,15.20
2022-11-25T23:35:55.119Z,14.40
2022-11-25T23:37:58.801Z,14.50
2022-11-25T23:40:01.810Z,12.00
2022-11-25T23:42:10.794Z,12.10
2022-11-25T23:44:31.876Z,11.10
2022-11-25T23:46:35.863Z,12.20
2022-11-25T23:48:38.823Z,10.80
2022-11-25T23:50:42.040Z,10.30
2022-11-25T23:52:45.099Z,10.30
2022-11-25T23:54:49.329Z,13.40
2022-11-25T23:56:52.140Z,11.50
2022-11-25T23:58:54.907Z,11.20
